Time;durP1;ratioP1;P1;durP2;ratioP2;P2;SDS_P1;SDS_P2;PMS_P1;PMS_P2;Temp;Humidity;BMP_temperature;BMP_pressure;BME280_temperature;BME280_humidity;BME280_pressure;Samples;Min_cycle;Max_cycle;Signal;HPM_P1;HPM_P2
2022/06/13 00:01:31;;;;;;;1.70;1.60;;;19.70;99.90;;;;;;5117608;28;20110;-69
2022/06/13 00:03:58;;;;;;;1.73;1.63;;;19.80;99.90;;;;;;5117506;28;20047;-76
2022/06/13 00:06:25;;;;;;;1.85;1.75;;;19.70;99.90;;;;;;5117690;28;20066;-74
2022/06/13 00:08:51;;;;;;;1.42;1.23;;;19.70;99.90;;;;;;5117566;28;20465;-68
2022/06/13 00:11:20;;;;;;;2.08;1.70;;;19.70;99.90;;;;;;5117320;28;20165;-69
2022/06/13 00:13:49;;;;;;;1.80;1.70;;;19.70;99.90;;;;;;5117360;28;20019;-70
2022/06/13 00:16:14;;;;;;;1.90;1.80;;;19.70;99.90;;;;;;5117421;28;20023;-71
2022/06/13 00:18:47;;;;;;;2.05;1.95;;;19.70;99.90;;;;;;5099148;28;20024;-70
2022/06/13 00:21:17;;;;;;;5.73;2.30;;;19.70;99.90;;;;;;5099124;28;20023;-73
2022/06/13 00:23:43;;;;;;;2.70;2.50;;;19.70;99.90;;;;;;5117119;28;20489;-72
2022/06/13 00:26:08;;;;;;;2.85;2.65;;;19.50;99.90;;;;;;5117364;28;20024;-71
2022/06/13 00:28:34;;;;;;;2.15;2.05;;;19.50;99.90;;;;;;5116975;28;20068;-76
2022/06/13 00:30:59;;;;;;;1.90;1.80;;;19.40;99.90;;;;;;5117217;28;20431;-67
2022/06/13 00:33:25;;;;;;;2.53;2.33;;;19.40;99.90;;;;;;5117258;28;20553;-72
2022/06/13 00:35:52;;;;;;;2.95;2.75;;;19.30;99.90;;;;;;5116957;28;20387;-64
2022/06/13 00:38:17;;;;;;;3.35;2.40;;;19.30;99.90;;;;;;5116180;28;20024;-73
2022/06/13 00:40:43;;;;;;;2.88;2.60;;;19.20;99.90;;;;;;5116821;28;20034;-74
2022/06/13 00:43:12;;;;;;;4.20;2.63;;;19.20;99.90;;;;;;5116806;28;20030;-77
2022/06/13 00:45:38;;;;;;;2.95;2.10;;;19.10;99.90;;;;;;5116851;28;20027;-71
2022/06/13 00:48:04;;;;;;;2.13;1.92;;;19.10;99.90;;;;;;5116759;28;20107;-65
2022/06/13 00:50:38;;;;;;;2.50;1.70;;;19.20;99.90;;;;;;5116686;28;20043;-76
2022/06/13 00:53:16;;;;;;;3.47;1.52;;;19.30;99.90;;;;;;5116445;28;20058;-74
2022/06/13 00:55:49;;;;;;;1.40;1.30;;;19.40;99.90;;;;;;5116826;28;20015;-72
2022/06/13 00:58:15;;;;;;;1.60;1.50;;;19.40;99.90;;;;;;5116626;28;20031;-73
2022/06/13 01:00:46;;;;;;;1.40;1.30;;;19.50;99.90;;;;;;5116593;28;20048;-72
2022/06/13 01:03:13;;;;;;;1.30;1.20;;;19.50;99.90;;;;;;5116188;28;20030;-74
2022/06/13 01:05:43;;;;;;;1.10;1.10;;;19.50;99.90;;;;;;5116608;28;20030;-70
2022/06/13 01:08:11;;;;;;;2.22;2.03;;;19.50;99.90;;;;;;5116098;28;20080;-70
2022/06/13 01:13:48;;;;;;;1.50;1.40;;;19.40;99.90;;;;;;5116208;28;20134;-71
2022/06/13 01:16:29;;;;;;;1.50;1.40;;;19.20;99.90;;;;;;5116358;28;20023;-68
2022/06/13 01:19:18;;;;;;;1.77;1.42;;;19.10;99.90;;;;;;5098151;28;20020;-70
2022/06/13 01:21:57;;;;;;;1.33;1.23;;;19.10;99.90;;;;;;5077567;28;20075;-74
2022/06/13 01:24:44;;;;;;;1.30;1.20;;;19.10;99.90;;;;;;5115879;28;20027;-69
2022/06/13 01:27:32;;;;;;;1.10;1.10;;;19.10;99.90;;;;;;5115985;28;20061;-63
2022/06/13 01:30:30;;;;;;;1.20;1.10;;;19.10;99.90;;;;;;5115944;28;20068;-67
2022/06/13 01:33:28;;;;;;;1.88;1.48;;;19.00;99.90;;;;;;5108758;28;20046;-73
2022/06/13 01:36:08;;;;;;;1.55;1.20;;;19.00;99.90;;;;;;5097498;28;20020;-70
2022/06/13 01:38:40;;;;;;;1.58;1.10;;;19.00;99.90;;;;;;5115973;28;20026;-79
2022/06/13 01:41:26;;;;;;;1.40;1.30;;;19.00;99.90;;;;;;5115899;28;20020;-69
2022/06/13 01:44:13;;;;;;;1.25;1.15;;;19.00;99.90;;;;;;5115753;28;20474;-67
2022/06/13 01:46:51;;;;;;;1.10;1.10;;;18.90;99.90;;;;;;5115657;28;20024;-76
2022/06/13 01:49:26;;;;;;;1.90;1.70;;;18.90;99.90;;;;;;5115510;28;20035;-75
2022/06/13 01:52:16;;;;;;;1.70;1.60;;;18.90;99.90;;;;;;5114108;28;20479;-73
2022/06/13 01:54:42;;;;;;;1.30;1.20;;;18.90;99.90;;;;;;5115371;28;20042;-69
2022/06/13 01:57:38;;;;;;;2.10;1.90;;;18.90;99.90;;;;;;5115456;28;20506;-75
2022/06/13 02:00:03;;;;;;;2.10;1.70;;;18.90;99.90;;;;;;5115441;28;20439;-72
2022/06/13 02:02:42;;;;;;;1.85;1.75;;;18.90;99.90;;;;;;5115271;28;20031;-69
2022/06/13 02:05:17;;;;;;;2.92;2.10;;;18.90;99.90;;;;;;5115172;28;20049;-75
2022/06/13 02:07:48;;;;;;;2.10;1.90;;;18.90;99.90;;;;;;5115394;28;20386;-77
2022/06/13 02:10:20;;;;;;;2.97;2.03;;;18.90;99.90;;;;;;5097052;28;20073;-75
2022/06/13 02:12:54;;;;;;;2.25;2.05;;;18.90;99.90;;;;;;5096736;28;20428;-76
2022/06/13 02:15:28;;;;;;;3.50;2.13;;;19.00;99.90;;;;;;5115073;28;20031;-69
2022/06/13 02:17:59;;;;;;;1.90;1.80;;;19.00;99.90;;;;;;5096699;28;20051;-69
2022/06/13 02:20:31;;;;;;;3.60;2.25;;;19.00;99.90;;;;;;5115009;28;20504;-67
2022/06/13 02:23:00;;;;;;;2.08;1.88;;;18.90;99.90;;;;;;5096690;28;20512;-74
2022/06/13 02:25:53;;;;;;;1.83;1.73;;;18.80;99.90;;;;;;5096733;28;20027;-74
2022/06/13 02:28:37;;;;;;;1.80;1.70;;;18.80;99.90;;;;;;5105956;28;20123;-69
2022/06/13 02:31:26;;;;;;;1.75;1.65;;;18.80;99.90;;;;;;5114872;28;20049;-75
2022/06/13 02:34:04;;;;;;;2.45;1.63;;;18.70;99.90;;;;;;5113798;28;20516;-76
2022/06/13 02:36:57;;;;;;;1.80;1.70;;;18.70;99.90;;;;;;5114658;28;20027;-71
2022/06/13 02:39:41;;;;;;;1.63;1.40;;;18.70;99.90;;;;;;5096678;28;20034;-68
2022/06/13 02:42:51;;;;;;;1.45;1.25;;;18.60;99.90;;;;;;5114836;28;20019;-73
2022/06/13 02:45:26;;;;;;;1.38;1.27;;;18.60;99.90;;;;;;5042100;28;20041;-67
2022/06/13 02:48:16;;;;;;;1.77;1.67;;;18.60;99.90;;;;;;5114382;28;20024;-66
2022/06/13 02:50:50;;;;;;;2.28;1.60;;;18.50;99.90;;;;;;5114493;28;20363;-73
2022/06/13 02:53:29;;;;;;;1.48;1.30;;;18.30;99.90;;;;;;5114456;28;20030;-73
2022/06/13 02:56:10;;;;;;;1.48;1.38;;;18.30;99.90;;;;;;5114271;28;20031;-68
2022/06/13 02:58:36;;;;;;;2.80;1.50;;;18.30;99.90;;;;;;5114515;28;20019;-66
2022/06/13 03:01:17;;;;;;;2.17;1.98;;;18.30;99.90;;;;;;5114265;28;20031;-69
2022/06/13 03:03:56;;;;;;;2.40;1.58;;;18.30;99.90;;;;;;5096182;28;20378;-67
2022/06/13 03:06:35;;;;;;;2.10;1.90;;;18.30;99.90;;;;;;5114393;28;20043;-66
2022/06/13 03:09:09;;;;;;;1.83;1.70;;;18.30;99.90;;;;;;5114436;28;20106;-69
2022/06/13 03:12:01;;;;;;;1.80;1.70;;;18.30;99.90;;;;;;5114169;28;20130;-75
2022/06/13 03:14:45;;;;;;;2.25;1.50;;;18.30;99.90;;;;;;5114355;28;20088;-70
2022/06/13 03:17:33;;;;;;;1.63;1.52;;;18.40;99.90;;;;;;5095884;28;20497;-73
2022/06/13 03:20:13;;;;;;;1.48;1.30;;;18.30;99.90;;;;;;5114285;28;20072;-75
2022/06/13 03:23:12;;;;;;;1.30;1.20;;;18.30;99.90;;;;;;5114445;28;20027;-70
2022/06/13 03:25:38;;;;;;;1.20;1.10;;;18.30;99.90;;;;;;5104047;28;20032;-74
2022/06/13 03:28:23;;;;;;;1.23;1.13;;;18.20;99.90;;;;;;5114091;28;20073;-75
2022/06/13 03:31:11;;;;;;;1.00;0.90;;;18.20;99.90;;;;;;5113936;28;20055;-69
2022/06/13 03:33:41;;;;;;;1.40;1.30;;;18.20;99.90;;;;;;5113759;28;20039;-73
2022/06/13 03:36:09;;;;;;;2.67;1.60;;;18.30;99.90;;;;;;5114101;28;20099;-65
2022/06/13 03:38:40;;;;;;;1.70;1.40;;;18.30;99.90;;;;;;5114300;28;20024;-68
2022/06/13 03:41:10;;;;;;;1.77;1.40;;;18.30;99.90;;;;;;5114522;28;20427;-72
2022/06/13 03:43:48;;;;;;;1.30;1.20;;;18.30;99.90;;;;;;5113926;28;20028;-72
2022/06/13 03:46:19;;;;;;;1.30;1.20;;;18.30;99.90;;;;;;5113711;28;20020;-70
2022/06/13 03:49:16;;;;;;;1.92;1.00;;;18.30;99.90;;;;;;5095938;28;20059;-68
2022/06/13 03:51:50;;;;;;;2.17;1.42;;;18.30;99.90;;;;;;5099394;28;20038;-77
2022/06/13 03:54:37;;;;;;;2.08;1.50;;;18.40;99.90;;;;;;5113883;28;20022;-75
2022/06/13 03:57:21;;;;;;;1.25;1.15;;;18.40;99.90;;;;;;5113888;28;20098;-66
2022/06/13 03:59:59;;;;;;;1.33;1.23;;;18.40;99.90;;;;;;5113936;28;20055;-70
2022/06/13 04:02:29;;;;;;;1.63;1.23;;;18.40;99.90;;;;;;5113903;28;20030;-72
2022/06/13 04:04:55;;;;;;;1.83;1.73;;;18.50;99.90;;;;;;5113867;28;20478;-69
2022/06/13 04:07:23;;;;;;;1.88;1.77;;;18.50;99.90;;;;;;5095647;28;20027;-70
2022/06/13 04:09:55;;;;;;;1.80;1.70;;;18.50;99.90;;;;;;5113898;28;20027;-75
2022/06/13 04:12:45;;;;;;;1.77;1.67;;;18.40;99.90;;;;;;5113759;28;20024;-72
2022/06/13 04:15:23;;;;;;;1.88;1.58;;;18.40;99.90;;;;;;5116474;28;20541;-72
2022/06/13 04:18:04;;;;;;;2.10;1.88;;;18.50;99.90;;;;;;5117399;28;20023;-66
2022/06/13 04:21:00;;;;;;;2.38;1.75;;;18.50;99.90;;;;;;5117400;28;20091;-70
2022/06/13 04:23:47;;;;;;;2.08;1.80;;;18.50;99.90;;;;;;5117378;28;20030;-71
2022/06/13 04:26:19;;;;;;;3.53;1.67;;;18.60;99.90;;;;;;5117145;28;20032;-66
2022/06/13 04:28:46;;;;;;;2.55;1.98;;;18.70;99.90;;;;;;5117133;28;20058;-75
2022/06/13 04:31:13;;;;;;;1.75;1.65;;;18.70;99.90;;;;;;5117027;28;20038;-68
2022/06/13 04:33:56;;;;;;;2.13;2.03;;;18.80;99.90;;;;;;5098797;28;20115;-70
2022/06/13 04:36:23;;;;;;;3.40;2.53;;;18.80;99.90;;;;;;5117209;28;20016;-70
2022/06/13 04:38:53;;;;;;;2.47;1.90;;;18.80;99.90;;;;;;5117076;28;20024;-76
2022/06/13 04:41:23;;;;;;;2.55;1.50;;;18.90;99.90;;;;;;5117049;28;20022;-75
2022/06/13 04:43:53;;;;;;;2.50;1.90;;;18.90;99.90;;;;;;5116775;28;20065;-73
2022/06/13 04:46:22;;;;;;;1.77;1.50;;;19.00;99.90;;;;;;5098590;28;20091;-67
2022/06/13 04:48:50;;;;;;;1.95;1.60;;;18.90;99.90;;;;;;5098860;28;20054;-69
2022/06/13 04:51:23;;;;;;;2.65;1.67;;;18.90;99.90;;;;;;5116765;28;20019;-70
2022/06/13 04:54:01;;;;;;;1.70;1.60;;;19.00;99.90;;;;;;5116677;28;20058;-70
2022/06/13 04:56:27;;;;;;;5.25;4.07;;;19.00;99.90;;;;;;5116382;28;20115;-70
2022/06/13 04:58:55;;;;;;;4.82;3.35;;;19.10;99.90;;;;;;5115949;28;20034;-73
2022/06/13 05:01:32;;;;;;;3.88;3.45;;;18.90;99.90;;;;;;5116246;28;20099;-73
2022/06/13 05:04:01;;;;;;;4.82;3.42;;;18.90;99.90;;;;;;5115566;28;20415;-73
2022/06/13 05:06:44;;;;;;;4.32;3.70;;;18.90;99.90;;;;;;5115681;28;20030;-69
2022/06/13 05:09:09;;;;;;;4.03;3.35;;;18.90;99.90;;;;;;5115192;28;20054;-69
2022/06/13 05:12:04;;;;;;;3.30;3.00;;;19.00;99.90;;;;;;5114042;28;20051;-67
2022/06/13 05:14:53;;;;;;;4.28;3.40;;;19.10;99.90;;;;;;5130127;27;20609;-67
2022/06/13 05:17:27;;;;;;;4.28;3.28;;;19.10;99.90;;;;;;5114598;27;20246;-70
2022/06/13 05:20:12;;;;;;;3.75;3.40;;;19.10;99.90;;;;;;5113390;28;20099;-70
2022/06/13 05:22:48;;;;;;;3.20;2.90;;;19.20;99.90;;;;;;5115656;27;21744;-66
2022/06/13 05:25:26;;;;;;;3.38;2.88;;;19.30;99.90;;;;;;5115547;27;20102;-65
2022/06/13 05:27:53;;;;;;;7.35;3.00;;;19.50;99.90;;;;;;5132542;27;20102;-67
2022/06/13 05:30:21;;;;;;;2.22;1.98;;;19.60;99.90;;;;;;5127105;27;20020;-65
2022/06/13 05:32:47;;;;;;;4.13;2.30;;;19.70;99.90;;;;;;5133344;27;20019;-69
2022/06/13 05:35:21;;;;;;;4.22;2.50;;;19.80;99.90;;;;;;5115196;27;20052;-67
2022/06/13 05:37:47;;;;;;;;;;;20.00;99.90;;;;;;5134340;27;20020;-66
2022/06/13 05:40:18;;;;;;;2.63;2.42;;;20.10;99.90;;;;;;5134548;27;20002;-65
2022/06/13 05:42:45;;;;;;;3.03;2.08;;;20.20;99.90;;;;;;5131730;27;20031;-68
2022/06/13 05:45:16;;;;;;;2.50;2.30;;;20.30;99.90;;;;;;5102584;27;20050;-65
2022/06/13 05:47:47;;;;;;;2.65;2.30;;;20.40;99.90;;;;;;5106355;27;20038;-69
2022/06/13 05:50:20;;;;;;;3.90;3.33;;;20.50;99.90;;;;;;5126445;27;20077;-68
2022/06/13 05:52:46;;;;;;;3.25;2.95;;;20.60;99.90;;;;;;5130740;27;20041;-68
2022/06/13 05:55:12;;;;;;;3.05;2.80;;;20.80;99.90;;;;;;5132009;27;20382;-68
2022/06/13 05:57:39;;;;;;;4.90;3.88;;;20.90;99.90;;;;;;5131367;27;20550;-69
2022/06/13 06:00:14;;;;;;;4.50;4.00;;;21.00;99.90;;;;;;5131874;27;20363;-69
2022/06/13 06:02:40;;;;;;;4.43;3.92;;;21.10;99.90;;;;;;5132402;27;20092;-70
2022/06/13 06:05:06;;;;;;;7.22;4.15;;;21.20;99.90;;;;;;5133292;27;20034;-69
2022/06/13 06:07:33;;;;;;;4.95;3.80;;;21.20;99.90;;;;;;5133863;27;20015;-71
2022/06/13 06:10:00;;;;;;;5.43;3.80;;;21.30;99.90;;;;;;5134310;27;20019;-68
2022/06/13 06:12:26;;;;;;;4.65;3.78;;;21.50;99.90;;;;;;5134055;27;20023;-68
2022/06/13 06:14:52;;;;;;;6.07;4.70;;;21.60;99.90;;;;;;5131170;27;20098;-72
2022/06/13 06:17:18;;;;;;;5.70;4.32;;;21.70;99.90;;;;;;5105689;27;20030;-69
2022/06/13 06:19:46;;;;;;;7.65;5.38;;;21.80;99.90;;;;;;5126378;27;20481;-67
2022/06/13 06:22:13;;;;;;;4.65;4.10;;;21.90;99.90;;;;;;5124365;27;20397;-67
2022/06/13 06:24:39;;;;;;;3.85;3.55;;;22.00;99.90;;;;;;5126779;27;20053;-67
2022/06/13 06:27:05;;;;;;;7.10;5.07;;;22.10;99.90;;;;;;5131980;27;20030;-70
2022/06/13 06:29:31;;;;;;;5.30;4.40;;;22.20;99.90;;;;;;5133000;27;20087;-69
2022/06/13 06:31:57;;;;;;;7.15;5.07;;;22.30;99.90;;;;;;5134345;27;20469;-70
2022/06/13 06:34:23;;;;;;;10.15;7.40;;;22.40;99.90;;;;;;5134217;27;20023;-70
2022/06/13 06:36:49;;;;;;;7.50;4.82;;;22.40;99.90;;;;;;5133374;27;20046;-68
2022/06/13 06:39:14;;;;;;;5.78;5.07;;;22.50;99.90;;;;;;5133848;27;20047;-68
2022/06/13 06:41:40;;;;;;;7.75;5.65;;;22.60;99.90;;;;;;5133277;27;20036;-71
2022/06/13 06:44:06;;;;;;;6.47;5.32;;;22.70;99.90;;;;;;5132170;27;20030;-67
2022/06/13 06:46:31;;;;;;;7.95;5.90;;;22.80;99.90;;;;;;5131629;27;20023;-66
2022/06/13 06:48:57;;;;;;;6.82;5.50;;;22.90;99.90;;;;;;5129840;27;20393;-67
2022/06/13 06:51:25;;;;;;;5.20;4.70;;;22.90;99.90;;;;;;5131004;27;20042;-66
2022/06/13 07:02:04;;;;;;;4.85;4.20;;;23.50;99.90;;;;;;5131896;27;20476;-70
2022/06/13 07:04:30;;;;;;;9.27;5.20;;;23.50;99.90;;;;;;5131392;27;20027;-63
2022/06/13 07:06:56;;;;;;;6.03;4.63;;;23.50;99.90;;;;;;5125175;27;20072;-66
2022/06/13 07:09:22;;;;;;;4.35;3.95;;;23.40;99.90;;;;;;5110291;28;20020;-70
2022/06/13 07:11:54;;;;;;;4.22;3.80;;;23.40;99.90;;;;;;5111238;28;20099;-68
2022/06/13 07:14:32;;;;;;;4.30;3.88;;;23.60;99.90;;;;;;5091285;28;20069;-64
2022/06/13 07:16:59;;;;;;;3.38;3.08;;;23.80;99.90;;;;;;5109038;28;20015;-67
2022/06/13 07:19:25;;;;;;;5.65;3.75;;;23.90;99.90;;;;;;5110270;28;20513;-70
2022/06/13 07:21:51;;;;;;;5.30;3.58;;;24.10;99.90;;;;;;5110853;28;20081;-68
2022/06/13 07:24:17;;;;;;;6.47;3.97;;;24.20;99.90;;;;;;5093950;28;20134;-66
2022/06/13 07:26:43;;;;;;;4.93;3.40;;;24.30;99.90;;;;;;5111176;28;20453;-71
2022/06/13 07:29:09;;;;;;;6.00;3.70;;;24.40;99.90;;;;;;5109398;28;20051;-69
2022/06/13 07:31:48;;;;;;;5.82;2.95;;;24.50;99.90;;;;;;5109467;28;20432;-69
2022/06/13 07:34:20;;;;;;;3.15;2.47;;;24.70;99.90;;;;;;5108311;28;20030;-67
2022/06/13 07:36:48;;;;;;;3.85;2.78;;;24.70;98.80;;;;;;5115260;28;20098;-72
2022/06/13 07:39:16;;;;;;;4.53;2.60;;;24.70;99.90;;;;;;5119226;28;20027;-70
2022/06/13 07:41:43;;;;;;;3.15;2.40;;;24.90;99.90;;;;;;5120164;28;20385;-66
2022/06/13 07:44:25;;;;;;;3.30;2.42;;;25.00;99.90;;;;;;5124120;28;20023;-72
2022/06/13 07:46:56;;;;;;;4.25;3.20;;;25.70;99.90;;;;;;5125983;28;20019;-70
2022/06/13 07:49:22;;;;;;;3.53;2.28;;;28.20;97.50;;;;;;5112183;27;20020;-68
2022/06/13 07:51:50;;;;;;;2.85;2.20;;;30.40;92.60;;;;;;5129862;27;20373;-72
2022/06/13 07:54:17;;;;;;;3.85;2.65;;;32.30;90.90;;;;;;5132411;27;20118;-72
2022/06/13 07:56:43;;;;;;;5.25;2.55;;;33.50;84.70;;;;;;5117710;27;20173;-71
2022/06/13 07:59:15;;;;;;;3.53;2.75;;;34.30;77.70;;;;;;5127482;27;20055;-70
2022/06/13 08:01:41;;;;;;;2.92;2.70;;;34.90;71.30;;;;;;5130584;27;20023;-70
2022/06/13 08:04:07;;;;;;;4.97;3.58;;;35.60;67.70;;;;;;5129970;27;20359;-71
2022/06/13 08:06:38;;;;;;;7.55;3.97;;;35.30;61.50;;;;;;5132265;27;20077;-70
2022/06/13 08:09:04;;;;;;;5.32;3.10;;;35.40;59.90;;;;;;5116697;27;20076;-70
2022/06/13 08:11:34;;;;;;;4.35;3.40;;;35.20;60.50;;;;;;5129574;27;20060;-70
2022/06/13 08:14:09;;;;;;;3.97;2.65;;;36.00;57.20;;;;;;5112065;27;20031;-70
2022/06/13 08:16:38;;;;;;;4.53;3.10;;;36.10;57.00;;;;;;5130936;27;20015;-69
2022/06/13 08:19:06;;;;;;;3.15;2.55;;;36.50;57.90;;;;;;5125440;27;20022;-67
2022/06/13 08:21:34;;;;;;;13.55;3.83;;;36.30;56.90;;;;;;5132270;27;20026;-66
2022/06/13 08:23:59;;;;;;;3.67;2.28;;;35.80;56.00;;;;;;5121193;27;20030;-70
2022/06/13 08:26:27;;;;;;;5.05;2.28;;;35.90;57.50;;;;;;5127815;27;20027;-66
2022/06/13 08:28:53;;;;;;;4.45;2.63;;;36.10;58.20;;;;;;5120630;27;20109;-67
2022/06/13 08:31:22;;;;;;;3.47;2.63;;;36.30;57.60;;;;;;5123592;27;20114;-68
2022/06/13 08:33:51;;;;;;;4.90;2.90;;;36.60;56.90;;;;;;5111076;27;20107;-66
2022/06/13 08:36:17;;;;;;;4.20;2.65;;;37.00;54.50;;;;;;5126178;27;20114;-70
2022/06/13 08:38:43;;;;;;;3.97;2.70;;;37.40;53.00;;;;;;5136191;27;20052;-67
2022/06/13 08:41:18;;;;;;;3.88;2.80;;;37.30;55.00;;;;;;5132588;27;20016;-69
2022/06/13 08:44:12;;;;;;;3.95;2.70;;;37.10;55.60;;;;;;5128581;27;20062;-69
2022/06/13 08:47:02;;;;;;;4.75;3.38;;;37.00;53.20;;;;;;5122632;27;20027;-65
2022/06/13 08:49:30;;;;;;;4.47;3.47;;;37.40;51.40;;;;;;5119691;27;20050;-65
2022/06/13 08:52:12;;;;;;;7.20;3.50;;;37.30;55.70;;;;;;5130461;27;20019;-67
2022/06/13 08:54:40;;;;;;;4.33;2.77;;;37.00;53.50;;;;;;5112765;27;20083;-68
2022/06/13 08:57:10;;;;;;;4.00;2.65;;;37.30;57.60;;;;;;5131463;27;20046;-67
2022/06/13 08:59:47;;;;;;;3.47;2.38;;;37.60;50.60;;;;;;5130021;27;20019;-67
2022/06/13 09:02:36;;;;;;;3.67;3.00;;;37.90;49.50;;;;;;5112695;27;20047;-66
2022/06/13 09:05:17;;;;;;;3.03;2.70;;;38.10;49.80;;;;;;5131426;27;20403;-64
2022/06/13 09:07:54;;;;;;;3.58;2.60;;;38.30;47.60;;;;;;5132298;27;20041;-66
2022/06/13 09:10:35;;;;;;;4.30;2.67;;;38.20;49.60;;;;;;5113833;27;20074;-65
2022/06/13 09:13:10;;;;;;;3.22;2.50;;;38.00;52.00;;;;;;5117148;27;20072;-66
2022/06/13 09:15:44;;;;;;;3.20;2.85;;;38.20;48.00;;;;;;5117818;27;20034;-66
2022/06/13 09:18:23;;;;;;;5.18;3.08;;;38.00;47.30;;;;;;5119005;27;20100;-69
2022/06/13 09:21:08;;;;;;;4.85;3.90;;;37.90;47.40;;;;;;5115812;27;20028;-68
2022/06/13 09:23:41;;;;;;;4.72;4.00;;;36.70;51.20;;;;;;5116706;27;20035;-67
2022/06/13 09:26:28;;;;;;;4.05;3.38;;;36.50;48.10;;;;;;5118900;27;20027;-68
2022/06/13 09:29:30;;;;;;;6.25;3.35;;;36.70;48.40;;;;;;5126868;27;20027;-68
2022/06/13 09:32:05;;;;;;;;;;;36.30;47.60;;;;;;5129041;27;20035;-70
2022/06/13 09:34:44;;;;;;;4.85;3.15;;;36.20;49.30;;;;;;5114606;27;19956;-71
2022/06/13 09:37:13;;;;;;;3.17;2.75;;;36.50;50.20;;;;;;5116892;27;20043;-69
2022/06/13 09:39:41;;;;;;;4.20;3.10;;;37.10;49.30;;;;;;5112173;28;20059;-68
2022/06/13 09:42:19;;;;;;;5.63;2.92;;;37.00;49.90;;;;;;5111261;28;20038;-69
2022/06/13 09:45:03;;;;;;;3.15;2.85;;;36.80;52.40;;;;;;5110312;28;20028;-71
2022/06/13 09:47:49;;;;;;;3.22;2.85;;;37.10;48.80;;;;;;5111506;27;20028;-68
2022/06/13 09:50:32;;;;;;;2.60;2.40;;;37.40;48.20;;;;;;5131883;27;20103;-68
2022/06/13 09:53:04;;;;;;;3.38;2.25;;;37.10;46.60;;;;;;5124478;27;20103;-68
2022/06/13 09:55:36;;;;;;;3.58;2.08;;;36.60;49.10;;;;;;5112951;28;20038;-68
2022/06/13 09:58:24;;;;;;;2.55;2.10;;;36.60;47.60;;;;;;5130457;27;20047;-66
2022/06/13 10:01:04;;;;;;;2.08;1.88;;;36.30;44.80;;;;;;5130832;27;20031;-70
2022/06/13 10:03:41;;;;;;;3.08;2.13;;;36.20;49.40;;;;;;5116700;27;20070;-67
2022/06/13 10:06:28;;;;;;;2.88;2.03;;;36.50;48.20;;;;;;5117142;27;20015;-65
2022/06/13 10:09:16;;;;;;;3.90;2.75;;;36.40;47.60;;;;;;5133019;27;20027;-73
2022/06/13 10:11:53;;;;;;;4.45;2.40;;;36.30;48.10;;;;;;5132646;27;20019;-71
2022/06/13 10:14:38;;;;;;;5.60;2.47;;;36.30;48.90;;;;;;5133994;27;20094;-76
2022/06/13 10:17:07;;;;;;;2.65;2.45;;;36.10;46.80;;;;;;5133182;27;20023;-66
2022/06/13 10:19:54;;;;;;;2.50;2.30;;;36.20;45.30;;;;;;5133347;27;20024;-71
2022/06/13 10:22:34;;;;;;;2.30;2.10;;;36.50;46.60;;;;;;5091621;27;20027;-71
2022/06/13 10:25:29;;;;;;;2.60;2.40;;;36.50;48.80;;;;;;5114776;27;20027;-74
2022/06/13 10:28:01;;;;;;;2.63;2.42;;;36.80;48.60;;;;;;5113826;28;20469;-71
2022/06/13 10:30:42;;;;;;;2.63;1.92;;;37.00;46.10;;;;;;5095487;27;20023;-65
2022/06/13 10:33:18;;;;;;;2.20;2.00;;;36.80;46.30;;;;;;5115778;27;20038;-70
2022/06/13 10:35:48;;;;;;;3.58;2.40;;;36.80;49.90;;;;;;5131715;27;20042;-66
2022/06/13 10:39:01;;;;;;;2.70;1.98;;;36.50;49.20;;;;;;5134323;27;20045;-67
2022/06/13 10:41:30;;;;;;;1.90;1.70;;;36.60;48.60;;;;;;5087990;27;20031;-66
2022/06/13 10:43:57;;;;;;;2.00;1.90;;;36.80;46.70;;;;;;5131487;27;20492;-69
2022/06/13 10:46:24;;;;;;;2.30;2.10;;;37.00;50.60;;;;;;5132823;27;20050;-70
2022/06/13 10:49:09;;;;;;;1.80;1.70;;;37.30;50.20;;;;;;5132618;27;20027;-66
2022/06/13 10:51:38;;;;;;;2.13;1.98;;;37.50;50.10;;;;;;5112135;28;20031;-71
2022/06/13 10:54:17;;;;;;;2.28;2.05;;;37.40;44.00;;;;;;5112864;28;20028;-64
2022/06/13 10:56:49;;;;;;;2.00;1.80;;;36.70;45.20;;;;;;5112597;28;20047;-66
2022/06/13 10:59:33;;;;;;;2.33;1.77;;;36.90;45.40;;;;;;5133844;27;20443;-67
2022/06/13 11:02:05;;;;;;;1.60;1.50;;;37.00;47.80;;;;;;5133701;27;20020;-67
2022/06/13 11:04:34;;;;;;;1.63;1.52;;;37.10;45.60;;;;;;5132477;27;20027;-66
2022/06/13 11:07:14;;;;;;;1.60;1.50;;;37.10;46.70;;;;;;5136034;27;20058;-66
2022/06/13 11:09:59;;;;;;;1.77;1.55;;;37.10;44.90;;;;;;5122586;27;20072;-65
2022/06/13 11:12:39;;;;;;;1.85;1.60;;;37.20;48.10;;;;;;5119545;28;20023;-71
2022/06/13 11:23:56;;;;;;;2.40;1.60;;;36.90;47.70;;;;;;5133090;27;20037;-68
2022/06/13 11:29:14;;;;;;;1.85;1.42;;;36.60;48.50;;;;;;5114868;28;20070;-77
2022/06/13 11:31:50;;;;;;;;;;;36.40;45.70;;;;;;5121261;27;20740;-70
2022/06/13 11:34:28;;;;;;;1.70;1.60;;;36.50;44.10;;;;;;5130583;27;19922;-75
2022/06/13 11:37:12;;;;;;;2.97;1.65;;;36.30;44.00;;;;;;5119484;27;20026;-76
2022/06/13 11:39:41;;;;;;;1.67;1.27;;;36.40;48.50;;;;;;5114552;28;20102;-73
2022/06/13 11:42:19;;;;;;;2.55;2.13;;;36.10;46.80;;;;;;5114427;28;20019;-71
2022/06/13 11:44:50;;;;;;;1.80;1.70;;;36.10;47.30;;;;;;5113908;28;20495;-70
2022/06/13 11:47:18;;;;;;;1.83;1.73;;;36.00;44.80;;;;;;5116069;28;20042;-71
2022/06/13 11:49:46;;;;;;;1.60;1.50;;;36.20;50.10;;;;;;5116375;28;20331;-69
2022/06/13 11:52:13;;;;;;;2.53;1.73;;;36.10;44.90;;;;;;5112700;28;20020;-71
2022/06/13 11:54:46;;;;;;;3.17;1.30;;;36.10;45.00;;;;;;5113171;28;20015;-75
2022/06/13 11:57:14;;;;;;;2.00;1.90;;;35.80;46.20;;;;;;5112585;28;20044;-72
2022/06/13 12:00:04;;;;;;;1.48;1.38;;;35.90;44.90;;;;;;5115645;28;20020;-70
2022/06/13 12:02:39;;;;;;;1.98;1.85;;;35.70;44.80;;;;;;5116034;28;20034;-69
2022/06/13 12:05:32;;;;;;;1.75;1.65;;;35.70;44.50;;;;;;5115911;28;20076;-76
2022/06/13 12:08:20;;;;;;;1.25;1.15;;;35.60;45.30;;;;;;5116541;28;20026;-68
2022/06/13 12:11:12;;;;;;;1.33;1.23;;;35.90;42.40;;;;;;5098713;28;20024;-75
2022/06/13 12:13:41;;;;;;;1.30;1.20;;;36.10;43.90;;;;;;5066567;28;20063;-69
2022/06/13 12:16:26;;;;;;;1.30;1.20;;;36.20;43.70;;;;;;5098849;28;20040;-71
2022/06/13 12:18:54;;;;;;;1.88;1.77;;;36.30;44.70;;;;;;5114840;28;20338;-73
2022/06/13 12:21:32;;;;;;;1.67;1.25;;;36.10;46.50;;;;;;5116900;28;20530;-76
2022/06/13 12:24:09;;;;;;;1.70;1.58;;;36.10;41.10;;;;;;5126965;27;20028;-72
2022/06/13 12:26:38;;;;;;;1.35;1.20;;;36.10;45.90;;;;;;5137708;27;20019;-70
2022/06/13 12:29:35;;;;;;;1.48;1.38;;;36.10;41.20;;;;;;5118151;27;20020;-69
2022/06/13 12:32:13;;;;;;;1.75;1.65;;;36.10;41.70;;;;;;5115214;28;20047;-72
2022/06/13 12:35:00;;;;;;;1.70;1.60;;;35.70;42.80;;;;;;5115040;28;20059;-68
2022/06/13 12:38:18;;;;;;;1.77;1.67;;;36.00;42.00;;;;;;5116573;28;20020;-71
2022/06/13 12:41:08;;;;;;;1.40;1.30;;;36.20;41.40;;;;;;5058125;28;20038;-74
2022/06/13 12:44:10;;;;;;;1.70;1.60;;;36.20;40.70;;;;;;5116810;28;20131;-72
2022/06/13 12:46:57;;;;;;;1.33;1.25;;;36.40;41.40;;;;;;5114845;28;20027;-73
2022/06/13 12:49:42;;;;;;;1.13;1.13;;;36.60;46.20;;;;;;5115518;28;20020;-72
2022/06/13 12:52:28;;;;;;;1.25;1.20;;;36.70;46.40;;;;;;5116206;28;20034;-64
2022/06/13 12:55:21;;;;;;;1.63;1.52;;;36.70;45.40;;;;;;5114447;28;20051;-66
2022/06/13 12:58:06;;;;;;;2.25;1.30;;;36.80;44.40;;;;;;5113817;28;20433;-72
2022/06/13 13:00:47;;;;;;;1.60;1.50;;;37.00;45.60;;;;;;5115051;28;20065;-70
2022/06/13 13:03:25;;;;;;;1.67;1.58;;;37.10;43.00;;;;;;5115347;28;20502;-69
2022/06/13 13:06:02;;;;;;;1.30;1.27;;;37.00;41.00;;;;;;5115555;28;20023;-68
2022/06/13 13:08:49;;;;;;;1.85;1.70;;;36.90;40.60;;;;;;5115537;28;20106;-68
2022/06/13 13:11:50;;;;;;;1.60;1.50;;;36.90;42.30;;;;;;5116698;28;20094;-75
2022/06/13 13:14:39;;;;;;;1.60;1.50;;;37.00;41.20;;;;;;5099471;28;20036;-71
2022/06/13 13:17:18;;;;;;;1.70;1.60;;;37.00;40.60;;;;;;5116563;28;20104;-73
2022/06/13 13:19:58;;;;;;;1.92;1.50;;;37.30;41.70;;;;;;5116525;28;20016;-70
2022/06/13 13:22:57;;;;;;;1.45;1.35;;;37.40;42.90;;;;;;5116196;28;20020;-70
2022/06/13 13:25:29;;;;;;;1.40;1.30;;;37.30;40.50;;;;;;5099602;28;20176;-71
2022/06/13 13:27:55;;;;;;;;;;;37.10;44.90;;;;;;5116551;28;20027;-68
2022/06/13 13:30:27;;;;;;;1.45;1.30;;;37.00;41.40;;;;;;5116173;28;19911;-73
2022/06/13 13:33:21;;;;;;;1.58;1.48;;;36.20;40.50;;;;;;5116174;28;20058;-72
2022/06/13 13:36:09;;;;;;;1.60;1.50;;;36.20;42.20;;;;;;5116302;28;20020;-70
2022/06/13 13:38:40;;;;;;;2.17;1.40;;;36.40;44.80;;;;;;5108367;28;20035;-76
2022/06/13 13:41:18;;;;;;;1.50;1.33;;;36.60;46.40;;;;;;5115698;28;20390;-70
2022/06/13 13:44:06;;;;;;;1.80;1.70;;;36.70;44.10;;;;;;5116034;28;20033;-75
2022/06/13 13:46:37;;;;;;;1.60;1.50;;;36.70;45.60;;;;;;5115876;28;20059;-68
2022/06/13 13:49:12;;;;;;;2.03;1.60;;;36.40;44.40;;;;;;5115979;28;20597;-75
2022/06/13 13:51:40;;;;;;;1.77;1.40;;;36.20;38.10;;;;;;5115919;28;20505;-68
2022/06/13 13:54:30;;;;;;;1.83;1.55;;;36.20;42.20;;;;;;5115718;28;20110;-76